Time;durP1;ratioP1;P1;durP2;ratioP2;P2;SDS_P1;SDS_P2;PMS_P1;PMS_P2;Temp;Humidity;BMP_temperature;BMP_pressure;BME280_temperature;BME280_humidity;BME280_pressure;Samples;Min_cycle;Max_cycle;Signal;HPM_P1;HPM_P2
2021/07/30 09:01:00;;;;;;;6.90;5.70;;;20.60;95.80;;;;;;5137278;22;20475;-85
2021/07/30 09:20:43;;;;;;;7.47;5.20;;;20.80;92.30;;;;;;5074621;23;20455;-85
2021/07/30 09:33:59;;;;;;;6.93;5.20;;;21.10;91.80;;;;;;5066871;23;20439;-84
2021/07/30 09:39:09;;;;;;;8.20;6.00;;;21.30;92.40;;;;;;5039940;23;20436;-82
2021/07/30 09:55:04;;;;;;;6.23;5.10;;;21.50;90.00;;;;;;4897701;24;20434;-84
2021/07/30 10:01:18;;;;;;;6.53;5.67;;;21.70;90.80;;;;;;4954890;23;21152;-84
2021/07/30 10:03:35;;;;;;;6.70;4.97;;;22.00;89.60;;;;;;4951469;23;21037;-84
2021/07/30 10:05:42;;;;;;;9.57;5.10;;;21.80;89.00;;;;;;5038280;23;20515;-84
2021/07/30 10:07:53;;;;;;;10.43;5.40;;;21.90;89.60;;;;;;5140552;23;20408;-83
2021/07/30 10:10:07;;;;;;;8.10;5.40;;;21.90;88.80;;;;;;5150621;23;20447;-84
2021/07/30 10:12:13;;;;;;;7.63;4.80;;;21.80;88.40;;;;;;5150957;23;20445;-84
2021/07/30 10:14:25;;;;;;;6.83;4.70;;;22.00;88.00;;;;;;5142913;23;20466;-84
2021/07/30 10:16:37;;;;;;;5.60;5.00;;;22.20;87.60;;;;;;5151780;23;20424;-85
2021/07/30 10:21:52;;;;;;;6.70;4.10;;;22.50;86.60;;;;;;5142494;23;20537;-85
2021/07/30 10:24:23;;;;;;;7.87;5.17;;;22.70;86.20;;;;;;5150133;23;21140;-85
2021/07/30 10:26:40;;;;;;;5.73;4.20;;;23.00;85.40;;;;;;5142835;23;20551;-84
2021/07/30 10:32:06;;;;;;;5.63;4.30;;;22.60;86.20;;;;;;5062051;23;20444;-84
2021/07/30 10:34:09;;;;;;;7.87;4.70;;;22.50;86.30;;;;;;5132818;23;20956;-85
2021/07/30 10:36:34;;;;;;;6.53;4.43;;;22.60;86.50;;;;;;5152037;23;20417;-83
2021/07/30 10:38:51;;;;;;;8.33;5.07;;;22.60;86.10;;;;;;5153227;23;20455;-85
2021/07/30 10:41:30;;;;;;;4.93;4.13;;;22.50;85.40;;;;;;5152624;23;20421;-83
2021/07/30 10:44:26;;;;;;;4.60;4.00;;;22.50;85.40;;;;;;5133552;23;20448;-84
2021/07/30 10:46:44;;;;;;;5.70;4.20;;;22.40;85.70;;;;;;5147633;23;20476;-85
2021/07/30 10:48:54;;;;;;;5.80;4.33;;;22.70;85.30;;;;;;5153109;23;20424;-84
2021/07/30 10:51:01;;;;;;;6.07;4.77;;;22.70;84.60;;;;;;5125231;23;20488;-83
2021/07/30 10:53:47;;;;;;;9.13;6.20;;;22.60;85.10;;;;;;5152614;23;20479;-83
2021/07/30 10:55:50;;;;;;;7.07;4.67;;;23.00;85.00;;;;;;5141199;23;20471;-82
2021/07/30 10:57:56;;;;;;;5.47;4.23;;;23.40;84.00;;;;;;5153214;23;21201;-82
2021/07/30 11:00:05;;;;;;;6.63;4.60;;;23.60;82.80;;;;;;5140742;23;20515;-82
2021/07/30 11:02:09;;;;;;;5.87;5.10;;;23.50;82.20;;;;;;5141117;23;20532;-82
2021/07/30 11:04:12;;;;;;;6.30;4.43;;;23.40;82.30;;;;;;5138371;23;21281;-81
2021/07/30 11:06:14;;;;;;;9.00;4.63;;;23.40;81.70;;;;;;5148040;23;20425;-81
2021/07/30 11:08:17;;;;;;;6.27;4.20;;;23.70;82.80;;;;;;5149813;23;20448;-82
2021/07/30 11:10:21;;;;;;;4.50;3.87;;;24.50;82.40;;;;;;5149156;23;20431;-83
2021/07/30 11:12:33;;;;;;;5.47;4.13;;;24.80;78.40;;;;;;5148513;23;20464;-82
2021/07/30 11:14:40;;;;;;;6.17;4.17;;;24.60;79.30;;;;;;5140606;23;20421;-82
2021/07/30 11:16:44;;;;;;;5.97;4.07;;;24.40;80.00;;;;;;5141827;23;20499;-83
2021/07/30 11:18:49;;;;;;;7.90;4.83;;;24.60;79.00;;;;;;5150416;23;20448;-83
2021/07/30 11:20:58;;;;;;;5.60;4.10;;;23.80;80.20;;;;;;5149785;23;20421;-82
2021/07/30 11:23:06;;;;;;;5.33;4.20;;;23.70;81.20;;;;;;5142298;23;20452;-84
2021/07/30 11:25:13;;;;;;;7.77;4.80;;;23.90;80.30;;;;;;5150441;23;20420;-82
2021/07/30 11:27:18;;;;;;;5.33;4.40;;;24.10;80.10;;;;;;5142275;23;20433;-83
2021/07/30 11:29:22;;;;;;;5.93;4.40;;;24.70;79.90;;;;;;5150414;23;20903;-83
2021/07/30 11:31:26;;;;;;;7.70;4.73;;;24.60;78.90;;;;;;5149092;23;20898;-83
2021/07/30 11:33:29;;;;;;;4.30;3.87;;;24.50;79.60;;;;;;5150226;23;20435;-83
2021/07/30 11:35:40;;;;;;;4.90;4.00;;;24.10;79.60;;;;;;5142298;23;20433;-83
2021/07/30 11:37:43;;;;;;;6.27;4.40;;;24.20;80.20;;;;;;5149777;23;20428;-83
2021/07/30 11:39:50;;;;;;;7.97;4.67;;;24.10;78.90;;;;;;5150426;23;20417;-83
2021/07/30 11:41:53;;;;;;;7.87;3.77;;;24.00;79.30;;;;;;5150308;23;20461;-82
2021/07/30 11:44:03;;;;;;;5.33;4.20;;;23.70;79.40;;;;;;5151645;23;20918;-81
2021/07/30 11:46:13;;;;;;;7.90;5.40;;;23.50;80.60;;;;;;5151372;23;20405;-82
2021/07/30 11:48:17;;;;;;;10.50;4.37;;;23.50;80.20;;;;;;5151901;23;20425;-83
2021/07/30 11:50:21;;;;;;;7.10;5.07;;;23.60;79.50;;;;;;5152303;23;20567;-82
2021/07/30 11:52:26;;;;;;;8.13;4.80;;;23.40;80.80;;;;;;5144450;23;20448;-82
2021/07/30 11:54:29;;;;;;;6.57;4.30;;;23.40;81.70;;;;;;5152292;23;20954;-81
2021/07/30 11:56:42;;;;;;;8.43;4.40;;;23.70;80.30;;;;;;5150983;23;20431;-82
2021/07/30 11:58:58;;;;;;;7.00;4.53;;;23.70;80.40;;;;;;5156809;23;20409;-81
2021/07/30 12:01:11;;;;;;;5.53;4.23;;;23.70;80.90;;;;;;5143038;23;21216;-81
2021/07/30 12:06:50;;;;;;;6.47;4.50;;;23.90;81.20;;;;;;5152368;23;20512;-82
2021/07/30 12:08:54;;;;;;;6.23;3.97;;;24.00;80.40;;;;;;5151923;23;20405;-82
2021/07/30 12:10:57;;;;;;;9.43;5.00;;;24.70;79.30;;;;;;5143653;23;20433;-82
2021/07/30 12:13:02;;;;;;;4.90;3.97;;;25.20;78.50;;;;;;5143953;23;20444;-82
2021/07/30 12:15:06;;;;;;;7.03;4.73;;;25.60;77.90;;;;;;5152418;23;20508;-82
2021/07/30 12:17:13;;;;;;;4.70;4.20;;;26.10;76.20;;;;;;5144133;23;20425;-82
2021/07/30 12:19:26;;;;;;;6.10;4.40;;;26.20;75.50;;;;;;5144785;23;20419;-82
2021/07/30 12:21:29;;;;;;;5.47;3.90;;;25.90;75.20;;;;;;5144108;23;20960;-81
2021/07/30 12:23:33;;;;;;;6.43;3.73;;;25.90;76.00;;;;;;5143837;23;20429;-82
2021/07/30 12:25:43;;;;;;;9.73;4.60;;;25.70;75.20;;;;;;5144473;23;20483;-82
2021/07/30 12:28:03;;;;;;;6.37;4.27;;;26.10;75.50;;;;;;5143652;23;20452;-83
2021/07/30 12:30:08;;;;;;;6.63;4.10;;;26.60;74.70;;;;;;5151167;23;20942;-83
2021/07/30 12:32:16;;;;;;;7.07;4.07;;;27.20;73.90;;;;;;5142138;23;20484;-82
2021/07/30 12:34:19;;;;;;;4.63;4.00;;;27.30;73.30;;;;;;5143366;23;20413;-83
2021/07/30 12:36:32;;;;;;;4.20;3.80;;;27.60;72.00;;;;;;5142659;23;20515;-81
2021/07/30 12:38:49;;;;;;;5.40;3.90;;;27.70;72.40;;;;;;5142542;23;20412;-82
2021/07/30 12:41:14;;;;;;;6.70;4.47;;;28.00;72.20;;;;;;5143363;23;20444;-82
2021/07/30 12:43:19;;;;;;;7.10;4.30;;;27.10;72.00;;;;;;5144188;23;20449;-82
2021/07/30 12:45:22;;;;;;;5.57;4.50;;;26.50;73.30;;;;;;5142259;23;20452;-84
2021/07/30 12:47:25;;;;;;;7.33;4.10;;;26.20;74.10;;;;;;5150117;23;20424;-83
2021/07/30 12:49:29;;;;;;;4.40;4.00;;;25.80;74.80;;;;;;5151267;23;20428;-83
2021/07/30 12:51:42;;;;;;;5.40;4.00;;;25.90;75.20;;;;;;5150754;23;20431;-84
2021/07/30 12:57:31;;;;;;;5.53;4.60;;;25.80;72.90;;;;;;5054389;23;20533;-83
2021/07/30 13:00:06;;;;;;;5.40;3.53;;;25.70;73.50;;;;;;5149670;23;20518;-83
2021/07/30 13:02:36;;;;;;;5.83;3.70;;;26.00;71.90;;;;;;5141816;23;20448;-83
2021/07/30 13:05:42;;;;;;;8.73;4.80;;;26.20;71.00;;;;;;5149731;23;20453;-84
2021/07/30 13:07:55;;;;;;;4.93;3.73;;;26.70;70.10;;;;;;5141507;23;20448;-83
2021/07/30 13:14:36;;;;;;;5.83;3.90;;;27.80;69.90;;;;;;5064268;23;20435;-83
2021/07/30 13:20:36;;;;;;;5.43;4.50;;;28.50;67.50;;;;;;5125380;23;20435;-84
2021/07/30 13:22:46;;;;;;;5.27;4.20;;;28.20;68.70;;;;;;5153818;23;20451;-82
